sensor_id;sensor_type;location;lat;lon;timestamp;noise_LAeq;noise_LA_min;noise_LA_max;noise_LA01;noise_LA95
72858;Laerm;62742;52.136;4.500;2023-01-30T00:00:35;43.07;40.09;46.22;;
72858;Laerm;62742;52.136;4.500;2023-01-30T00:03:01;43.30;40.31;45.52;;
72858;Laerm;62742;52.136;4.500;2023-01-30T00:05:27;43.40;38.97;55.26;;
72858;Laerm;62742;52.136;4.500;2023-01-30T00:07:54;43.47;40.38;45.54;;
72858;Laerm;62742;52.136;4.500;2023-01-30T00:10:20;43.35;40.06;46.14;;
72858;Laerm;62742;52.136;4.500;2023-01-30T00:12:46;42.98;37.63;45.76;;
72858;Laerm;62742;52.136;4.500;2023-01-30T00:15:13;43.08;40.18;45.15;;
72858;Laerm;62742;52.136;4.500;2023-01-30T00:17:39;43.09;39.35;45.39;;
72858;Laerm;62742;52.136;4.500;2023-01-30T00:20:05;43.12;39.47;45.81;;
72858;Laerm;62742;52.136;4.500;2023-01-30T00:22:31;43.13;39.58;45.60;;
72858;Laerm;62742;52.136;4.500;2023-01-30T00:24:58;43.25;40.26;45.68;;
72858;Laerm;62742;52.136;4.500;2023-01-30T00:27:24;43.33;40.44;45.23;;
72858;Laerm;62742;52.136;4.500;2023-01-30T00:29:50;43.16;40.32;45.41;;
72858;Laerm;62742;52.136;4.500;2023-01-30T00:32:16;43.19;39.54;45.23;;
72858;Laerm;62742;52.136;4.500;2023-01-30T00:34:42;42.94;39.55;46.03;;
72858;Laerm;62742;52.136;4.500;2023-01-30T00:37:09;43.03;38.38;51.72;;
72858;Laerm;62742;52.136;4.500;2023-01-30T00:39:35;43.03;37.74;50.64;;
72858;Laerm;62742;52.136;4.500;2023-01-30T00:42:01;43.24;38.11;51.02;;
72858;Laerm;62742;52.136;4.500;2023-01-30T00:44:46;43.15;38.39;49.68;;
72858;Laerm;62742;52.136;4.500;2023-01-30T00:47:31;43.16;38.52;55.21;;
72858;Laerm;62742;52.136;4.500;2023-01-30T00:49:57;43.06;39.21;50.25;;
72858;Laerm;62742;52.136;4.500;2023-01-30T00:52:23;42.68;36.91;51.57;;
72858;Laerm;62742;52.136;4.500;2023-01-30T00:54:49;42.77;37.79;50.96;;
72858;Laerm;62742;52.136;4.500;2023-01-30T00:57:17;42.90;39.49;50.55;;
72858;Laerm;62742;52.136;4.500;2023-01-30T00:59:43;42.55;35.82;51.66;;
72858;Laerm;62742;52.136;4.500;2023-01-30T01:02:09;42.75;37.91;48.81;;
72858;Laerm;62742;52.136;4.500;2023-01-30T01:04:35;42.71;39.39;46.43;;
72858;Laerm;62742;52.136;4.500;2023-01-30T01:07:12;42.78;37.12;51.72;;
72858;Laerm;62742;52.136;4.500;2023-01-30T01:09:38;42.60;37.52;51.35;;
72858;Laerm;62742;52.136;4.500;2023-01-30T01:12:05;42.70;37.70;51.34;;
72858;Laerm;62742;52.136;4.500;2023-01-30T01:14:32;42.60;37.26;52.92;;
72858;Laerm;62742;52.136;4.500;2023-01-30T01:16:58;42.74;37.27;50.48;;
72858;Laerm;62742;52.136;4.500;2023-01-30T01:19:24;42.61;37.11;53.18;;
72858;Laerm;62742;52.136;4.500;2023-01-30T01:21:51;42.98;36.83;52.62;;
72858;Laerm;62742;52.136;4.500;2023-01-30T01:24:17;42.94;36.57;52.40;;
72858;Laerm;62742;52.136;4.500;2023-01-30T01:26:43;42.51;36.26;52.34;;
72858;Laerm;62742;52.136;4.500;2023-01-30T01:29:15;42.81;37.90;52.19;;
72858;Laerm;62742;52.136;4.500;2023-01-30T01:31:42;42.81;36.83;53.65;;
72858;Laerm;62742;52.136;4.500;2023-01-30T01:34:09;42.70;36.82;52.21;;
72858;Laerm;62742;52.136;4.500;2023-01-30T01:36:36;42.81;37.22;52.48;;
72858;Laerm;62742;52.136;4.500;2023-01-30T01:39:03;43.01;37.87;53.39;;
72858;Laerm;62742;52.136;4.500;2023-01-30T01:41:29;42.94;38.66;55.62;;
72858;Laerm;62742;52.136;4.500;2023-01-30T01:44:03;43.02;39.52;51.17;;
72858;Laerm;62742;52.136;4.500;2023-01-30T01:46:52;43.15;39.88;54.38;;
72858;Laerm;62742;52.136;4.500;2023-01-30T01:49:24;43.21;39.40;47.85;;
72858;Laerm;62742;52.136;4.500;2023-01-30T01:52:03;43.15;35.55;52.50;;
72858;Laerm;62742;52.136;4.500;2023-01-30T01:54:51;42.98;39.11;46.95;;
72858;Laerm;62742;52.136;4.500;2023-01-30T01:57:33;42.94;39.92;50.64;;
72858;Laerm;62742;52.136;4.500;2023-01-30T02:00:09;42.72;37.22;49.54;;
72858;Laerm;62742;52.136;4.500;2023-01-30T02:02:38;43.55;36.95;56.20;;
72858;Laerm;62742;52.136;4.500;2023-01-30T02:05:06;43.97;39.50;52.77;;
72858;Laerm;62742;52.136;4.500;2023-01-30T02:07:45;43.68;38.90;53.00;;
72858;Laerm;62742;52.136;4.500;2023-01-30T02:10:18;43.87;39.24;53.05;;
72858;Laerm;62742;52.136;4.500;2023-01-30T02:12:45;43.84;38.68;53.72;;
72858;Laerm;62742;52.136;4.500;2023-01-30T02:15:12;43.94;37.83;55.36;;
72858;Laerm;62742;52.136;4.500;2023-01-30T02:17:38;43.72;38.02;54.63;;
72858;Laerm;62742;52.136;4.500;2023-01-30T02:23:26;44.02;39.96;53.72;;
72858;Laerm;62742;52.136;4.500;2023-01-30T02:37:07;43.19;38.72;52.27;;
72858;Laerm;62742;52.136;4.500;2023-01-30T02:48:04;42.84;39.55;51.89;;
72858;Laerm;62742;52.136;4.500;2023-01-30T02:50:39;42.84;39.33;45.97;;
72858;Laerm;62742;52.136;4.500;2023-01-30T02:53:11;42.84;39.36;52.48;;
72858;Laerm;62742;52.136;4.500;2023-01-30T02:55:40;42.95;39.28;47.57;;
72858;Laerm;62742;52.136;4.500;2023-01-30T02:58:07;42.95;38.97;48.05;;
72858;Laerm;62742;52.136;4.500;2023-01-30T03:03:28;42.98;39.49;48.87;;
72858;Laerm;62742;52.136;4.500;2023-01-30T03:11:23;42.83;39.06;46.08;;
72858;Laerm;62742;52.136;4.500;2023-01-30T03:14:00;42.81;39.45;45.91;;
72858;Laerm;62742;52.136;4.500;2023-01-30T03:16:37;42.95;39.20;51.03;;
72858;Laerm;62742;52.136;4.500;2023-01-30T03:19:08;42.98;39.72;45.98;;
72858;Laerm;62742;52.136;4.500;2023-01-30T03:21:40;42.64;38.67;48.73;;
72858;Laerm;62742;52.136;4.500;2023-01-30T03:24:07;42.52;38.89;47.55;;
72858;Laerm;62742;52.136;4.500;2023-01-30T03:26:38;42.65;38.72;47.22;;
72858;Laerm;62742;52.136;4.500;2023-01-30T03:29:06;42.78;38.50;48.02;;
72858;Laerm;62742;52.136;4.500;2023-01-30T03:31:32;42.83;38.10;49.16;;
72858;Laerm;62742;52.136;4.500;2023-01-30T03:33:59;42.91;37.97;47.64;;
72858;Laerm;62742;52.136;4.500;2023-01-30T03:36:25;43.04;39.21;45.16;;
72858;Laerm;62742;52.136;4.500;2023-01-30T03:38:51;42.83;39.62;45.49;;
72858;Laerm;62742;52.136;4.500;2023-01-30T03:41:17;42.77;37.94;47.87;;
72858;Laerm;62742;52.136;4.500;2023-01-30T03:43:43;44.70;35.75;57.79;;
72858;Laerm;62742;52.136;4.500;2023-01-30T03:46:10;45.49;36.12;60.15;;
72858;Laerm;62742;52.136;4.500;2023-01-30T03:48:36;42.75;39.35;50.87;;
72858;Laerm;62742;52.136;4.500;2023-01-30T03:51:02;42.83;39.18;45.47;;
72858;Laerm;62742;52.136;4.500;2023-01-30T03:53:30;42.83;39.43;49.55;;
72858;Laerm;62742;52.136;4.500;2023-01-30T03:55:56;42.78;38.62;51.85;;
72858;Laerm;62742;52.136;4.500;2023-01-30T03:58:22;42.66;35.14;52.43;;
72858;Laerm;62742;52.136;4.500;2023-01-30T04:00:49;42.71;34.91;51.79;;
72858;Laerm;62742;52.136;4.500;2023-01-30T04:03:15;42.83;37.19;52.59;;
72858;Laerm;62742;52.136;4.500;2023-01-30T04:05:44;42.90;37.43;53.06;;
72858;Laerm;62742;52.136;4.500;2023-01-30T04:08:10;43.07;39.29;50.20;;
72858;Laerm;62742;52.136;4.500;2023-01-30T04:10:36;42.69;36.76;51.93;;
72858;Laerm;62742;52.136;4.500;2023-01-30T04:13:02;42.44;35.93;51.18;;
72858;Laerm;62742;52.136;4.500;2023-01-30T04:15:29;42.67;36.50;52.11;;
72858;Laerm;62742;52.136;4.500;2023-01-30T04:17:55;42.79;37.08;52.75;;
72858;Laerm;62742;52.136;4.500;2023-01-30T04:20:21;42.64;36.81;54.05;;
72858;Laerm;62742;52.136;4.500;2023-01-30T04:22:47;42.83;37.77;56.02;;
72858;Laerm;62742;52.136;4.500;2023-01-30T04:25:13;42.74;37.87;54.62;;
72858;Laerm;62742;52.136;4.500;2023-01-30T04:27:40;42.88;38.00;53.98;;
72858;Laerm;62742;52.136;4.500;2023-01-30T04:30:06;42.83;37.79;54.03;;
72858;Laerm;62742;52.136;4.500;2023-01-30T04:32:33;42.71;37.50;54.56;;
72858;Laerm;62742;52.136;4.500;2023-01-30T04:34:59;43.42;38.71;55.45;;
72858;Laerm;62742;52.136;4.500;2023-01-30T04:37:25;43.55;38.53;55.41;;
72858;Laerm;62742;52.136;4.500;2023-01-30T04:39:51;43.28;38.01;54.02;;
72858;Laerm;62742;52.136;4.500;2023-01-30T04:42:20;43.43;39.93;51.80;;
72858;Laerm;62742;52.136;4.500;2023-01-30T04:44:46;43.32;40.02;54.69;;
72858;Laerm;62742;52.136;4.500;2023-01-30T04:47:13;42.96;39.30;54.24;;
72858;Laerm;62742;52.136;4.500;2023-01-30T04:49:39;42.92;39.25;53.99;;
72858;Laerm;62742;52.136;4.500;2023-01-30T04:52:05;42.86;38.93;54.46;;
72858;Laerm;62742;52.136;4.500;2023-01-30T04:54:31;43.03;39.40;54.65;;
72858;Laerm;62742;52.136;4.500;2023-01-30T04:56:58;43.00;39.10;54.54;;
72858;Laerm;62742;52.136;4.500;2023-01-30T04:59:24;42.94;39.25;56.11;;
72858;Laerm;62742;52.136;4.500;2023-01-30T05:01:50;43.52;39.79;54.48;;
72858;Laerm;62742;52.136;4.500;2023-01-30T05:04:18;43.29;38.81;55.94;;
72858;Laerm;62742;52.136;4.500;2023-01-30T05:06:44;43.70;39.04;54.16;;
72858;Laerm;62742;52.136;4.500;2023-01-30T05:09:10;43.10;37.10;54.33;;
72858;Laerm;62742;52.136;4.500;2023-01-30T05:11:37;42.89;37.56;54.90;;
72858;Laerm;62742;52.136;4.500;2023-01-30T05:14:03;43.12;38.89;55.41;;
72858;Laerm;62742;52.136;4.500;2023-01-30T05:16:30;42.93;38.19;53.96;;
72858;Laerm;62742;52.136;4.500;2023-01-30T05:18:56;43.01;37.84;54.92;;
72858;Laerm;62742;52.136;4.500;2023-01-30T05:21:25;42.96;37.87;54.11;;
72858;Laerm;62742;52.136;4.500;2023-01-30T05:23:53;42.98;37.56;53.29;;
72858;Laerm;62742;52.136;4.500;2023-01-30T05:26:20;42.79;37.80;54.78;;
72858;Laerm;62742;52.136;4.500;2023-01-30T05:28:52;42.97;37.58;52.49;;
72858;Laerm;62742;52.136;4.500;2023-01-30T05:31:18;42.71;36.57;54.94;;
72858;Laerm;62742;52.136;4.500;2023-01-30T05:33:46;43.58;38.14;52.21;;
72858;Laerm;62742;52.136;4.500;2023-01-30T05:36:15;43.14;36.92;54.20;;
72858;Laerm;62742;52.136;4.500;2023-01-30T05:38:43;43.11;38.49;53.75;;
72858;Laerm;62742;52.136;4.500;2023-01-30T05:41:14;43.19;38.51;53.97;;
72858;Laerm;62742;52.136;4.500;2023-01-30T05:43:40;43.19;38.75;55.81;;
72858;Laerm;62742;52.136;4.500;2023-01-30T05:46:09;42.62;39.02;50.16;;
72858;Laerm;62742;52.136;4.500;2023-01-30T05:48:36;43.00;38.96;51.51;;
72858;Laerm;62742;52.136;4.500;2023-01-30T05:51:02;43.03;39.23;49.78;;
72858;Laerm;62742;52.136;4.500;2023-01-30T05:53:31;42.80;38.88;50.09;;
72858;Laerm;62742;52.136;4.500;2023-01-30T05:56:01;43.06;39.43;49.03;;
72858;Laerm;62742;52.136;4.500;2023-01-30T05:58:30;43.41;39.76;54.03;;
72858;Laerm;62742;52.136;4.500;2023-01-30T06:01:01;43.51;40.03;54.69;;
72858;Laerm;62742;52.136;4.500;2023-01-30T06:03:28;43.85;37.42;54.31;;
72858;Laerm;62742;52.136;4.500;2023-01-30T06:05:54;44.10;38.38;55.48;;
72858;Laerm;62742;52.136;4.500;2023-01-30T06:08:20;44.23;40.29;54.91;;
72858;Laerm;62742;52.136;4.500;2023-01-30T06:10:47;44.50;39.82;54.53;;
72858;Laerm;62742;52.136;4.500;2023-01-30T06:13:13;44.27;39.94;52.55;;
72858;Laerm;62742;52.136;4.500;2023-01-30T06:15:39;44.47;39.76;54.17;;
72858;Laerm;62742;52.136;4.500;2023-01-30T06:18:05;43.99;38.54;53.11;;
72858;Laerm;62742;52.136;4.500;2023-01-30T06:20:31;45.03;39.53;54.04;;
72858;Laerm;62742;52.136;4.500;2023-01-30T06:22:58;45.29;42.06;53.42;;
72858;Laerm;62742;52.136;4.500;2023-01-30T06:25:25;44.75;40.51;54.89;;
72858;Laerm;62742;52.136;4.500;2023-01-30T06:27:52;43.86;39.55;54.85;;
72858;Laerm;62742;52.136;4.500;2023-01-30T06:30:18;43.83;39.57;54.45;;
72858;Laerm;62742;52.136;4.500;2023-01-30T06:32:49;43.31;39.65;52.08;;
72858;Laerm;62742;52.136;4.500;2023-01-30T06:35:15;43.26;39.85;50.76;;
72858;Laerm;62742;52.136;4.500;2023-01-30T06:37:43;43.43;39.79;51.31;;
72858;Laerm;62742;52.136;4.500;2023-01-30T06:40:10;43.36;39.24;51.18;;
72858;Laerm;62742;52.136;4.500;2023-01-30T06:42:37;43.46;39.22;51.39;;
72858;Laerm;62742;52.136;4.500;2023-01-30T06:45:03;43.93;40.30;52.74;;
72858;Laerm;62742;52.136;4.500;2023-01-30T06:47:30;44.03;40.97;52.65;;
72858;Laerm;62742;52.136;4.500;2023-01-30T06:49:56;44.49;41.28;53.28;;
72858;Laerm;62742;52.136;4.500;2023-01-30T06:52:25;44.57;41.91;53.12;;
72858;Laerm;62742;52.136;4.500;2023-01-30T06:54:51;44.24;39.84;53.07;;
72858;Laerm;62742;52.136;4.500;2023-01-30T06:57:17;43.48;39.26;49.52;;
72858;Laerm;62742;52.136;4.500;2023-01-30T06:59:44;43.25;39.86;49.42;;
72858;Laerm;62742;52.136;4.500;2023-01-30T07:02:12;43.41;39.85;51.13;;
72858;Laerm;62742;52.136;4.500;2023-01-30T07:04:38;44.43;41.04;53.33;;
72858;Laerm;62742;52.136;4.500;2023-01-30T07:07:06;44.22;40.25;54.80;;
72858;Laerm;62742;52.136;4.500;2023-01-30T07:09:32;43.60;39.90;55.10;;
72858;Laerm;62742;52.136;4.500;2023-01-30T07:11:58;44.47;40.78;54.09;;
72858;Laerm;62742;52.136;4.500;2023-01-30T07:14:25;44.37;40.56;54.42;;
72858;Laerm;62742;52.136;4.500;2023-01-30T07:16:51;43.92;40.79;55.13;;
72858;Laerm;62742;52.136;4.500;2023-01-30T07:19:17;44.23;40.98;55.46;;
72858;Laerm;62742;52.136;4.500;2023-01-30T07:21:43;44.93;40.71;54.26;;
72858;Laerm;62742;52.136;4.500;2023-01-30T07:24:09;44.73;40.81;54.21;;
72858;Laerm;62742;52.136;4.500;2023-01-30T07:26:36;44.35;40.20;52.37;;
72858;Laerm;62742;52.136;4.500;2023-01-30T07:29:02;45.23;40.66;53.74;;
72858;Laerm;62742;52.136;4.500;2023-01-30T07:31:28;45.45;41.96;53.90;;
72858;Laerm;62742;52.136;4.500;2023-01-30T07:33:54;45.18;38.54;54.34;;
72858;Laerm;62742;52.136;4.500;2023-01-30T07:36:20;44.29;40.76;55.29;;
72858;Laerm;62742;52.136;4.500;2023-01-30T07:38:47;45.29;41.52;54.33;;
72858;Laerm;62742;52.136;4.500;2023-01-30T07:41:14;45.47;41.55;54.79;;
72858;Laerm;62742;52.136;4.500;2023-01-30T07:43:40;44.89;41.14;54.99;;
72858;Laerm;62742;52.136;4.500;2023-01-30T07:46:06;44.64;41.39;55.69;;
72858;Laerm;62742;52.136;4.500;2023-01-30T07:48:33;45.31;42.88;54.67;;
72858;Laerm;62742;52.136;4.500;2023-01-30T07:50:59;45.30;42.29;55.81;;
72858;Laerm;62742;52.136;4.500;2023-01-30T07:53:26;45.36;41.48;55.79;;
72858;Laerm;62742;52.136;4.500;2023-01-30T07:55:52;44.67;39.99;55.75;;
72858;Laerm;62742;52.136;4.500;2023-01-30T07:58:18;43.68;39.53;56.39;;
72858;Laerm;62742;52.136;4.500;2023-01-30T08:00:44;44.50;40.99;55.89;;
72858;Laerm;62742;52.136;4.500;2023-01-30T08:03:15;44.98;40.80;56.13;;
72858;Laerm;62742;52.136;4.500;2023-01-30T08:05:41;45.37;41.54;55.92;;
72858;Laerm;62742;52.136;4.500;2023-01-30T08:08:09;45.22;41.75;54.69;;
72858;Laerm;62742;52.136;4.500;2023-01-30T08:10:35;45.02;41.80;55.36;;
72858;Laerm;62742;52.136;4.500;2023-01-30T08:13:01;44.18;40.49;55.75;;
72858;Laerm;62742;52.136;4.500;2023-01-30T08:15:27;45.09;41.59;57.82;;
72858;Laerm;62742;52.136;4.500;2023-01-30T08:17:56;44.01;39.86;56.21;;
72858;Laerm;62742;52.136;4.500;2023-01-30T08:20:24;44.83;41.57;56.44;;
72858;Laerm;62742;52.136;4.500;2023-01-30T08:22:51;44.57;41.39;54.25;;
72858;Laerm;62742;52.136;4.500;2023-01-30T08:25:17;44.98;41.54;55.49;;
72858;Laerm;62742;52.136;4.500;2023-01-30T08:27:44;45.17;41.57;55.30;;
72858;Laerm;62742;52.136;4.500;2023-01-30T08:30:11;44.89;41.09;55.06;;
72858;Laerm;62742;52.136;4.500;2023-01-30T08:32:38;44.88;41.33;55.32;;
72858;Laerm;62742;52.136;4.500;2023-01-30T08:35:05;44.98;41.84;55.34;;
72858;Laerm;62742;52.136;4.500;2023-01-30T08:37:31;44.87;41.83;55.28;;
72858;Laerm;62742;52.136;4.500;2023-01-30T08:39:57;45.29;42.59;55.36;;
72858;Laerm;62742;52.136;4.500;2023-01-30T08:42:23;45.08;42.16;55.56;;
72858;Laerm;62742;52.136;4.500;2023-01-30T08:44:50;45.13;42.12;54.98;;
72858;Laerm;62742;52.136;4.500;2023-01-30T08:47:16;45.46;42.02;55.81;;
72858;Laerm;62742;52.136;4.500;2023-01-30T08:49:42;45.10;41.73;55.69;;
72858;Laerm;62742;52.136;4.500;2023-01-30T08:52:09;45.19;42.29;54.85;;
72858;Laerm;62742;52.136;4.500;2023-01-30T08:54:35;44.89;41.59;54.47;;
72858;Laerm;62742;52.136;4.500;2023-01-30T08:57:02;45.03;41.68;53.98;;
72858;Laerm;62742;52.136;4.500;2023-01-30T08:59:28;44.86;41.83;54.83;;
72858;Laerm;62742;52.136;4.500;2023-01-30T09:01:54;45.08;42.17;55.70;;
72858;Laerm;62742;52.136;4.500;2023-01-30T09:04:20;45.08;41.63;55.19;;
72858;Laerm;62742;52.136;4.500;2023-01-30T09:06:49;45.04;42.41;53.36;;
72858;Laerm;62742;52.136;4.500;2023-01-30T09:09:15;44.76;41.27;55.31;;
72858;Laerm;62742;52.136;4.500;2023-01-30T09:11:42;44.79;40.86;54.81;;
72858;Laerm;62742;52.136;4.500;2023-01-30T09:14:08;44.97;42.06;54.30;;
72858;Laerm;62742;52.136;4.500;2023-01-30T09:16:34;44.81;41.62;54.85;;
72858;Laerm;62742;52.136;4.500;2023-01-30T09:19:00;44.82;41.84;54.74;;
72858;Laerm;62742;52.136;4.500;2023-01-30T09:21:28;44.57;41.78;54.59;;
72858;Laerm;62742;52.136;4.500;2023-01-30T09:23:55;44.62;41.45;53.72;;
72858;Laerm;62742;52.136;4.500;2023-01-30T09:26:21;44.59;39.85;53.74;;
72858;Laerm;62742;52.136;4.500;2023-01-30T09:28:47;44.57;41.08;53.95;;
72858;Laerm;62742;52.136;4.500;2023-01-30T09:31:13;45.81;41.69;54.52;;
72858;Laerm;62742;52.136;4.500;2023-01-30T09:33:39;45.46;39.47;52.47;;
72858;Laerm;62742;52.136;4.500;2023-01-30T09:36:06;45.67;40.87;52.57;;
72858;Laerm;62742;52.136;4.500;2023-01-30T09:38:32;45.62;40.52;51.92;;
72858;Laerm;62742;52.136;4.500;2023-01-30T09:52:16;45.17;39.69;52.03;;
72858;Laerm;62742;52.136;4.500;2023-01-30T09:54:47;45.18;40.66;51.07;;
72858;Laerm;62742;52.136;4.500;2023-01-30T09:57:20;44.57;38.59;50.93;;
72858;Laerm;62742;52.136;4.500;2023-01-30T10:00:04;44.90;41.31;50.71;;
72858;Laerm;62742;52.136;4.500;2023-01-30T10:02:56;45.02;41.13;50.49;;
72858;Laerm;62742;52.136;4.500;2023-01-30T10:05:50;44.47;39.49;49.29;;
72858;Laerm;62742;52.136;4.500;2023-01-30T10:16:24;45.18;41.57;52.94;;
72858;Laerm;62742;52.136;4.500;2023-01-30T10:26:52;45.61;41.17;51.78;;
72858;Laerm;62742;52.136;4.500;2023-01-30T10:29:23;45.03;39.66;53.00;;
72858;Laerm;62742;52.136;4.500;2023-01-30T10:32:00;44.44;40.22;50.70;;
72858;Laerm;62742;52.136;4.500;2023-01-30T10:34:41;44.71;40.32;51.67;;
72858;Laerm;62742;52.136;4.500;2023-01-30T10:39:46;43.86;39.98;50.04;;
72858;Laerm;62742;52.136;4.500;2023-01-30T10:42:39;44.52;39.70;50.59;;
72858;Laerm;62742;52.136;4.500;2023-01-30T10:45:14;44.48;41.02;50.24;;
72858;Laerm;62742;52.136;4.500;2023-01-30T10:48:10;43.81;40.36;47.54;;
72858;Laerm;62742;52.136;4.500;2023-01-30T10:50:52;43.79;39.50;47.88;;
72858;Laerm;62742;52.136;4.500;2023-01-30T10:53:44;44.40;40.21;49.44;;
72858;Laerm;62742;52.136;4.500;2023-01-30T10:56:30;44.40;41.39;50.03;;
72858;Laerm;62742;52.136;4.500;2023-01-30T10:59:29;44.45;39.08;49.89;;
72858;Laerm;62742;52.136;4.500;2023-01-30T11:02:00;43.76;39.61;49.95;;
72858;Laerm;62742;52.136;4.500;2023-01-30T11:04:32;43.71;40.11;46.93;;
72858;Laerm;62742;52.136;4.500;2023-01-30T11:07:02;44.41;39.56;50.84;;
72858;Laerm;62742;52.136;4.500;2023-01-30T11:09:46;44.71;40.24;50.90;;
72858;Laerm;62742;52.136;4.500;2023-01-30T11:12:13;44.40;40.26;51.82;;
72858;Laerm;62742;52.136;4.500;2023-01-30T11:17:19;44.39;40.67;50.69;;
72858;Laerm;62742;52.136;4.500;2023-01-30T11:19:57;44.39;40.37;50.89;;
72858;Laerm;62742;52.136;4.500;2023-01-30T11:22:27;44.58;41.24;50.75;;
72858;Laerm;62742;52.136;4.500;2023-01-30T11:25:03;44.46;40.92;50.48;;
72858;Laerm;62742;52.136;4.500;2023-01-30T11:27:33;44.47;41.10;50.38;;
72858;Laerm;62742;52.136;4.500;2023-01-30T11:30:13;44.26;40.58;48.92;;
72858;Laerm;62742;52.136;4.500;2023-01-30T11:32:42;44.37;41.09;51.61;;
72858;Laerm;62742;52.136;4.500;2023-01-30T11:37:42;44.19;41.12;49.31;;
72858;Laerm;62742;52.136;4.500;2023-01-30T11:43:11;44.71;40.20;49.82;;
72858;Laerm;62742;52.136;4.500;2023-01-30T11:45:41;44.40;40.87;49.94;;
72858;Laerm;62742;52.136;4.500;2023-01-30T11:48:21;43.94;40.55;50.69;;
72858;Laerm;62742;52.136;4.500;2023-01-30T11:50:54;43.63;39.92;52.67;;
72858;Laerm;62742;52.136;4.500;2023-01-30T11:53:33;44.50;41.29;51.38;;
72858;Laerm;62742;52.136;4.500;2023-01-30T11:56:20;44.32;41.45;49.87;;
72858;Laerm;62742;52.136;4.500;2023-01-30T12:01:46;44.32;40.87;50.50;;
72858;Laerm;62742;52.136;4.500;2023-01-30T12:04:12;44.37;41.11;50.80;;
72858;Laerm;62742;52.136;4.500;2023-01-30T12:06:41;44.27;41.19;50.75;;
72858;Laerm;62742;52.136;4.500;2023-01-30T12:11:55;44.49;41.14;49.51;;
72858;Laerm;62742;52.136;4.500;2023-01-30T12:14:46;44.20;40.54;53.31;;
72858;Laerm;62742;52.136;4.500;2023-01-30T12:17:20;44.12;40.36;53.23;;
72858;Laerm;62742;52.136;4.500;2023-01-30T12:19:50;44.13;40.89;51.76;;
72858;Laerm;62742;52.136;4.500;2023-01-30T12:22:42;44.35;40.57;52.97;;
72858;Laerm;62742;52.136;4.500;2023-01-30T12:30:55;44.10;40.62;53.32;;
72858;Laerm;62742;52.136;4.500;2023-01-30T12:33:29;43.91;40.64;52.06;;
72858;Laerm;62742;52.136;4.500;2023-01-30T12:41:50;43.91;39.61;49.37;;
72858;Laerm;62742;52.136;4.500;2023-01-30T12:58:35;43.84;39.82;48.45;;
72858;Laerm;62742;52.136;4.500;2023-01-30T13:09:39;44.15;40.84;50.02;;
72858;Laerm;62742;52.136;4.500;2023-01-30T13:12:25;44.17;40.53;49.95;;
72858;Laerm;62742;52.136;4.500;2023-01-30T13:22:44;44.08;40.48;51.10;;
72858;Laerm;62742;52.136;4.500;2023-01-30T13:25:23;43.92;39.55;51.66;;
72858;Laerm;62742;52.136;4.500;2023-01-30T13:27:57;44.41;40.84;51.63;;
72858;Laerm;62742;52.136;4.500;2023-01-30T13:30:28;44.56;41.65;51.72;;
72858;Laerm;62742;52.136;4.500;2023-01-30T13:33:00;44.69;40.81;51.57;;
72858;Laerm;62742;52.136;4.500;2023-01-30T13:35:32;44.87;41.04;52.28;;
72858;Laerm;62742;52.136;4.500;2023-01-30T13:38:02;45.18;41.13;52.25;;
72858;Laerm;62742;52.136;4.500;2023-01-30T13:40:37;44.77;40.62;50.98;;
72858;Laerm;62742;52.136;4.500;2023-01-30T13:43:40;44.66;41.19;48.92;;
72858;Laerm;62742;52.136;4.500;2023-01-30T13:46:10;44.44;40.44;49.81;;
72858;Laerm;62742;52.136;4.500;2023-01-30T13:48:49;44.29;39.55;50.37;;
72858;Laerm;62742;52.136;4.500;2023-01-30T13:54:01;44.62;40.84;51.05;;
72858;Laerm;62742;52.136;4.500;2023-01-30T14:02:28;44.68;40.95;50.72;;
72858;Laerm;62742;52.136;4.500;2023-01-30T14:04:56;44.75;41.13;50.88;;
72858;Laerm;62742;52.136;4.500;2023-01-30T14:12:36;44.19;40.75;48.94;;
72858;Laerm;62742;52.136;4.500;2023-01-30T14:18:06;44.37;39.70;50.85;;
72858;Laerm;62742;52.136;4.500;2023-01-30T14:20:40;43.94;39.59;49.51;;
72858;Laerm;62742;52.136;4.500;2023-01-30T14:23:29;44.37;40.02;49.98;;
72858;Laerm;62742;52.136;4.500;2023-01-30T14:25:57;44.23;40.17;51.12;;
72858;Laerm;62742;52.136;4.500;2023-01-30T14:30:52;44.60;40.51;49.92;;
72858;Laerm;62742;52.136;4.500;2023-01-30T14:38:18;44.53;41.08;51.00;;
72858;Laerm;62742;52.136;4.500;2023-01-30T14:41:15;44.44;39.46;50.40;;
72858;Laerm;62742;52.136;4.500;2023-01-30T14:43:38;44.59;40.78;50.48;;
72858;Laerm;62742;52.136;4.500;2023-01-30T14:53:52;44.39;39.81;49.57;;
72858;Laerm;62742;52.136;4.500;2023-01-30T14:59:03;44.22;40.60;50.17;;
72858;Laerm;62742;52.136;4.500;2023-01-30T15:04:44;44.11;40.47;50.60;;
72858;Laerm;62742;52.136;4.500;2023-01-30T15:07:40;44.17;40.63;49.97;;
72858;Laerm;62742;52.136;4.500;2023-01-30T15:21:18;43.90;40.39;49.64;;
72858;Laerm;62742;52.136;4.500;2023-01-30T15:23:58;44.08;40.79;50.60;;
72858;Laerm;62742;52.136;4.500;2023-01-30T15:26:42;44.00;39.57;51.61;;
72858;Laerm;62742;52.136;4.500;2023-01-30T15:32:01;44.09;39.37;51.05;;
72858;Laerm;62742;52.136;4.500;2023-01-30T15:34:29;43.82;39.69;49.92;;
72858;Laerm;62742;52.136;4.500;2023-01-30T15:36:57;44.09;40.72;50.34;;
72858;Laerm;62742;52.136;4.500;2023-01-30T15:39:25;44.12;40.28;50.81;;
72858;Laerm;62742;52.136;4.500;2023-01-30T15:41:55;44.49;41.33;51.06;;
72858;Laerm;62742;52.136;4.500;2023-01-30T15:47:16;44.32;40.97;51.04;;
72858;Laerm;62742;52.136;4.500;2023-01-30T15:50:12;44.39;40.40;49.71;;
72858;Laerm;62742;52.136;4.500;2023-01-30T15:52:44;44.23;39.77;51.03;;
72858;Laerm;62742;52.136;4.500;2023-01-30T15:55:19;44.09;40.44;49.54;;
72858;Laerm;62742;52.136;4.500;2023-01-30T15:57:55;44.14;39.49;49.34;;
72858;Laerm;62742;52.136;4.500;2023-01-30T16:00:26;44.05;39.95;50.47;;
72858;Laerm;62742;52.136;4.500;2023-01-30T16:02:54;43.77;39.07;49.89;;
72858;Laerm;62742;52.136;4.500;2023-01-30T16:05:24;44.17;40.13;49.86;;
72858;Laerm;62742;52.136;4.500;2023-01-30T16:07:52;44.29;40.56;49.59;;
72858;Laerm;62742;52.136;4.500;2023-01-30T16:10:24;44.36;40.46;52.12;;
72858;Laerm;62742;52.136;4.500;2023-01-30T16:12:53;43.95;40.76;49.95;;
72858;Laerm;62742;52.136;4.500;2023-01-30T16:15:32;43.80;40.44;48.28;;
72858;Laerm;62742;52.136;4.500;2023-01-30T16:18:07;44.20;40.43;49.78;;
72858;Laerm;62742;52.136;4.500;2023-01-30T16:20:46;44.20;40.26;50.10;;
72858;Laerm;62742;52.136;4.500;2023-01-30T16:23:22;44.71;40.23;50.75;;
72858;Laerm;62742;52.136;4.500;2023-01-30T16:25:51;43.98;39.32;49.72;;
72858;Laerm;62742;52.136;4.500;2023-01-30T16:28:22;43.79;39.05;48.64;;
72858;Laerm;62742;52.136;4.500;2023-01-30T16:30:56;44.03;40.67;49.08;;
72858;Laerm;62742;52.136;4.500;2023-01-30T16:33:23;43.89;39.50;49.38;;
72858;Laerm;62742;52.136;4.500;2023-01-30T16:35:50;43.92;40.45;49.77;;
72858;Laerm;62742;52.136;4.500;2023-01-30T16:38:36;43.92;40.57;52.36;;
72858;Laerm;62742;52.136;4.500;2023-01-30T16:41:04;43.79;40.97;52.73;;
72858;Laerm;62742;52.136;4.500;2023-01-30T16:43:31;43.86;40.25;47.84;;
72858;Laerm;62742;52.136;4.500;2023-01-30T16:48:48;43.71;40.03;48.48;;
72858;Laerm;62742;52.136;4.500;2023-01-30T16:51:20;43.53;40.31;48.65;;
72858;Laerm;62742;52.136;4.500;2023-01-30T16:53:55;43.50;38.69;48.45;;